createdAt,value
2018-02-02T00:01:32.695Z,99738.21
2018-02-02T00:02:37.040Z,99747.88
2018-02-02T00:03:41.263Z,99738.19
2018-02-02T00:04:45.564Z,99734.27
2018-02-02T00:05:50.320Z,99728.11
2018-02-02T00:06:54.820Z,99731.57
2018-02-02T00:07:59.133Z,99726.28
2018-02-02T00:09:03.424Z,99728.95
2018-02-02T00:10:07.688Z,99726.69
2018-02-02T00:11:12.008Z,99721.02
2018-02-02T00:12:16.257Z,99730.28
2018-02-02T00:13:20.546Z,99738.65
2018-02-02T00:14:24.748Z,99725.95
2018-02-02T00:15:29.206Z,99729.88
2018-02-02T00:16:33.453Z,99733.81
2018-02-02T00:17:37.700Z,99731.58
2018-02-02T00:18:42.275Z,99735.11
2018-02-02T00:19:46.464Z,99725.47
2018-02-02T00:20:51.547Z,99729.84
2018-02-02T00:21:55.896Z,99727.66
2018-02-02T00:23:00.115Z,99728.11
2018-02-02T00:24:04.420Z,99730.73
2018-02-02T00:25:08.952Z,99738.23
2018-02-02T00:26:13.168Z,99725.05
2018-02-02T00:27:17.440Z,99730.72
2018-02-02T00:28:21.633Z,99726.33
2018-02-02T00:29:25.902Z,99728.47
2018-02-02T00:30:30.277Z,99729.36
2018-02-02T00:31:34.829Z,99730.70
2018-02-02T00:32:39.033Z,99735.09
2018-02-02T00:33:44.828Z,99727.15
2018-02-02T00:34:50.151Z,99728.84
2018-02-02T00:35:54.353Z,99733.20
2018-02-02T00:36:58.534Z,99722.66
2018-02-02T00:44:21.219Z,99718.84
2018-02-02T00:45:25.661Z,99723.23
2018-02-02T00:46:29.960Z,99727.61
2018-02-02T00:47:34.159Z,99727.21
2018-02-02T00:48:38.303Z,99717.47
2018-02-02T00:49:42.519Z,99726.64
2018-02-02T00:52:02.589Z,99728.34
2018-02-02T00:53:06.743Z,99726.52
2018-02-02T00:54:10.903Z,99730.92
2018-02-02T00:55:15.042Z,99732.28
2018-02-02T00:56:19.432Z,99725.73
2018-02-02T00:57:23.637Z,99726.17
2018-02-02T00:58:27.798Z,99726.63
2018-02-02T00:59:32.042Z,99722.67
2018-02-02T01:00:36.405Z,99724.46
2018-02-02T01:01:40.980Z,99734.12
2018-02-02T01:02:45.899Z,99739.39
2018-02-02T01:03:50.053Z,99724.09
2018-02-02T01:04:54.242Z,99728.50
2018-02-02T01:05:58.403Z,99732.88
2018-02-02T01:07:02.638Z,99728.41
2018-02-02T01:08:06.837Z,99731.98
2018-02-02T01:09:11.347Z,99730.74
2018-02-02T01:10:15.520Z,99727.68
2018-02-02T01:11:19.659Z,99732.00
2018-02-02T01:12:23.849Z,99733.70
2018-02-02T01:13:28.018Z,99726.67
2018-02-02T01:19:22.926Z,99717.44
2018-02-02T01:20:27.150Z,99720.94
2018-02-02T01:21:31.346Z,99715.23
2018-02-02T01:22:35.546Z,99718.73
2018-02-02T01:23:39.803Z,99715.20
2018-02-02T01:24:43.922Z,99707.33
2018-02-02T01:25:48.190Z,99710.33
2018-02-02T01:26:52.302Z,99709.11
2018-02-02T01:27:56.862Z,99699.00
2018-02-02T01:29:02.000Z,99716.55
2018-02-02T01:30:07.129Z,99714.85
2018-02-02T01:31:11.520Z,99709.19
2018-02-02T01:32:16.080Z,99714.34
2018-02-02T01:33:20.216Z,99707.30
2018-02-02T01:34:24.636Z,99723.89
2018-02-02T01:35:28.764Z,99710.34
2018-02-02T01:36:33.962Z,99708.19
2018-02-02T01:37:38.137Z,99732.70
2018-02-02T01:38:42.253Z,99712.15
2018-02-02T01:39:46.382Z,99706.88
2018-02-02T01:40:50.848Z,99707.27
2018-02-02T01:41:55.091Z,99718.27
2018-02-02T01:42:59.217Z,99712.58
2018-02-02T01:44:04.240Z,99704.27
2018-02-02T01:45:08.761Z,99709.95
2018-02-02T01:46:13.222Z,99711.64
2018-02-02T01:47:17.434Z,99712.92
2018-02-02T01:48:22.593Z,99712.45
2018-02-02T01:49:26.763Z,99705.50
2018-02-02T01:50:31.233Z,99709.47
2018-02-02T01:51:35.671Z,99701.16
2018-02-02T01:52:39.882Z,99705.57
2018-02-02T01:53:44.050Z,99701.52
2018-02-02T01:54:48.601Z,99714.71
2018-02-02T01:57:09.463Z,99709.47
2018-02-02T01:58:13.896Z,99710.84
2018-02-02T01:59:18.012Z,99724.42
2018-02-02T02:00:22.425Z,99705.94
2018-02-02T02:01:26.562Z,99715.57
2018-02-02T02:02:30.790Z,99708.09
2018-02-02T02:03:34.954Z,99713.80
2018-02-02T02:04:39.370Z,99701.48
2018-02-02T02:05:43.484Z,99703.70
2018-02-02T02:06:47.627Z,99707.61
2018-02-02T02:07:51.863Z,99701.47
2018-02-02T02:08:56.048Z,99707.23
2018-02-02T02:10:00.278Z,99722.59
2018-02-02T02:11:04.745Z,99702.37
2018-02-02T02:12:09.086Z,99708.45
2018-02-02T02:13:13.238Z,99701.02
2018-02-02T02:14:17.331Z,99709.83
2018-02-02T02:15:21.716Z,99702.83
2018-02-02T02:16:25.820Z,99703.22
2018-02-02T02:17:30.127Z,99699.20
2018-02-02T02:18:34.263Z,99697.91
2018-02-02T02:19:39.176Z,99709.34
2018-02-02T02:20:43.339Z,99703.27
2018-02-02T02:21:47.554Z,99704.64
2018-02-02T02:22:52.137Z,99693.20
2018-02-02T02:23:58.170Z,99690.52
2018-02-02T02:25:02.364Z,99690.48
2018-02-02T02:26:06.507Z,99690.53
2018-02-02T02:27:10.723Z,99680.90
2018-02-02T02:28:15.195Z,99688.28
2018-02-02T02:29:19.376Z,99684.70
2018-02-02T02:30:24.079Z,99685.03
2018-02-02T02:31:28.346Z,99689.53
2018-02-02T02:32:32.741Z,99683.81
2018-02-02T02:33:37.461Z,99690.44
2018-02-02T02:34:41.914Z,99694.45
2018-02-02T02:35:46.143Z,99679.95
2018-02-02T02:36:50.257Z,99690.45
2018-02-02T02:37:54.405Z,99682.97
2018-02-02T02:38:59.525Z,99685.98
2018-02-02T02:40:03.692Z,99687.36
2018-02-02T02:41:08.178Z,99680.84
2018-02-02T02:42:12.375Z,99679.95
2018-02-02T02:43:16.489Z,99677.73
2018-02-02T02:44:20.634Z,99678.67
2018-02-02T02:45:24.862Z,99678.23
2018-02-02T02:46:29.005Z,99688.78
2018-02-02T02:47:33.553Z,99685.73
2018-02-02T02:48:37.670Z,99684.33
2018-02-02T02:49:41.820Z,99691.30
2018-02-02T03:01:55.514Z,99680.75
2018-02-02T03:02:59.633Z,99683.86
2018-02-02T03:04:03.846Z,99693.58
2018-02-02T03:05:09.102Z,99687.00
2018-02-02T03:06:13.220Z,99690.08
2018-02-02T03:07:17.424Z,99683.55
2018-02-02T03:08:21.594Z,99693.67
2018-02-02T03:09:25.789Z,99681.84
2018-02-02T03:10:29.954Z,99691.50
2018-02-02T03:11:34.995Z,99693.72
2018-02-02T03:12:39.127Z,99680.06
2018-02-02T03:13:43.313Z,99693.20
2018-02-02T03:14:47.467Z,99684.88
2018-02-02T03:15:51.973Z,99691.09
2018-02-02T03:16:56.639Z,99688.05
2018-02-02T03:18:01.119Z,99686.36
2018-02-02T03:19:05.594Z,99686.84
2018-02-02T03:20:09.750Z,99700.38
2018-02-02T03:21:14.445Z,99698.73
2018-02-02T03:22:18.843Z,99693.95
2018-02-02T03:23:23.672Z,99712.79
2018-02-02T03:24:28.235Z,99698.81
2018-02-02T03:25:32.442Z,99697.95
2018-02-02T03:26:37.355Z,99699.22
2018-02-02T03:27:41.491Z,99706.27
2018-02-02T03:28:45.673Z,99707.58
2018-02-02T03:33:51.001Z,99710.70
2018-02-02T03:34:55.198Z,99706.83
2018-02-02T03:35:59.602Z,99709.05
2018-02-02T03:37:03.688Z,99700.71
2018-02-02T03:38:07.897Z,99704.62
2018-02-02T03:39:12.053Z,99692.82
2018-02-02T03:40:16.261Z,99703.31
2018-02-02T03:41:20.392Z,99706.00
2018-02-02T03:42:24.937Z,99706.84
2018-02-02T03:43:29.050Z,99701.17
2018-02-02T03:44:33.149Z,99706.91
2018-02-02T03:45:38.309Z,99699.92
2018-02-02T03:46:42.475Z,99704.74
2018-02-02T03:47:46.919Z,99707.41
2018-02-02T03:48:51.050Z,99706.95
2018-02-02T03:49:55.280Z,99706.93
2018-02-02T03:50:59.410Z,99703.45
2018-02-02T03:52:03.596Z,99710.94
2018-02-02T03:53:07.698Z,99719.28
2018-02-02T03:54:12.129Z,99711.83
2018-02-02T03:55:17.001Z,99709.16
2018-02-02T03:56:21.151Z,99717.53
2018-02-02T03:57:25.324Z,99707.45
2018-02-02T03:58:30.402Z,99717.11
2018-02-02T03:59:34.595Z,99700.03
2018-02-02T04:00:39.613Z,99708.32
2018-02-02T04:01:43.723Z,99719.27
2018-02-02T04:02:47.837Z,99712.72
2018-02-02T04:03:51.918Z,99708.77
2018-02-02T04:04:56.109Z,99714.93
2018-02-02T04:06:00.229Z,99710.55
2018-02-02T04:07:04.696Z,99705.69
2018-02-02T04:08:08.916Z,99704.83
2018-02-02T04:09:13.069Z,99705.23
2018-02-02T04:10:18.061Z,99711.75
2018-02-02T04:11:22.193Z,99707.41
2018-02-02T04:12:26.365Z,99711.39
2018-02-02T04:13:30.508Z,99714.07
2018-02-02T04:14:34.625Z,99723.27
2018-02-02T04:15:40.227Z,99710.13
2018-02-02T04:16:45.301Z,99716.72
2018-02-02T04:17:49.395Z,99720.19
2018-02-02T04:18:53.864Z,99710.53
2018-02-02T04:19:59.030Z,99714.41
2018-02-02T04:21:03.176Z,99709.20
2018-02-02T04:27:44.195Z,99719.81
2018-02-02T04:28:48.315Z,99723.33
2018-02-02T04:29:52.529Z,99728.60
2018-02-02T04:30:56.949Z,99722.04
2018-02-02T04:32:01.523Z,99721.14
2018-02-02T04:33:05.650Z,99721.11
2018-02-02T04:34:09.900Z,99711.50
2018-02-02T04:35:14.136Z,99711.48
2018-02-02T04:36:18.889Z,99707.59
2018-02-02T04:37:23.141Z,99714.62
2018-02-02T04:38:27.369Z,99711.55
2018-02-02T04:39:31.656Z,99715.95
2018-02-02T04:40:35.929Z,99714.17
2018-02-02T04:41:40.063Z,99714.20
2018-02-02T04:42:44.262Z,99720.33
2018-02-02T04:43:48.466Z,99715.95
2018-02-02T04:44:53.047Z,99717.27
2018-02-02T04:45:57.422Z,99721.66
2018-02-02T04:47:01.535Z,99719.02
2018-02-02T04:48:05.722Z,99720.36
2018-02-02T04:49:09.961Z,99724.30
2018-02-02T04:57:02.430Z,99728.27
2018-02-02T04:58:06.648Z,99727.37
2018-02-02T04:59:10.777Z,99726.92
2018-02-02T05:00:16.975Z,99722.95
2018-02-02T05:01:21.738Z,99728.68
2018-02-02T05:02:26.186Z,99728.67
2018-02-02T05:03:30.406Z,99731.75
2018-02-02T05:04:34.564Z,99727.79
2018-02-02T05:05:38.696Z,99733.92
2018-02-02T05:06:42.802Z,99728.66
2018-02-02T05:07:47.025Z,99733.48
2018-02-02T05:08:51.152Z,99729.98
2018-02-02T05:09:55.274Z,99730.83
2018-02-02T05:10:59.386Z,99733.46
2018-02-02T05:12:03.566Z,99726.02
2018-02-02T05:13:07.764Z,99724.73
2018-02-02T05:14:11.887Z,99732.16
2018-02-02T05:15:16.533Z,99731.27
2018-02-02T05:16:21.857Z,99729.97
2018-02-02T05:17:25.970Z,99722.55
2018-02-02T05:18:30.317Z,99727.34
2018-02-02T05:19:34.807Z,99727.36
2018-02-02T05:20:38.924Z,99729.53
2018-02-02T05:21:43.440Z,99726.92
2018-02-02T05:22:47.569Z,99732.61
2018-02-02T05:23:52.143Z,99722.98
2018-02-02T05:24:56.258Z,99735.23
2018-02-02T05:26:01.142Z,99727.83
2018-02-02T05:27:05.239Z,99726.06
2018-02-02T05:28:09.679Z,99735.20
2018-02-02T05:29:13.927Z,99728.67
2018-02-02T05:30:18.383Z,99729.10
2018-02-02T05:31:22.891Z,99722.12
2018-02-02T05:32:27.008Z,99737.44
2018-02-02T05:36:03.832Z,99731.27
2018-02-02T05:37:07.965Z,99733.48
2018-02-02T05:38:12.070Z,99733.92
2018-02-02T05:39:16.212Z,99731.72
2018-02-02T05:40:20.842Z,99725.97
2018-02-02T05:41:24.966Z,99726.41
2018-02-02T05:42:29.106Z,99731.26
2018-02-02T05:43:34.175Z,99729.09
2018-02-02T05:44:39.269Z,99729.08
2018-02-02T05:45:43.812Z,99728.22
2018-02-02T05:46:48.229Z,99734.79
2018-02-02T05:47:52.408Z,99733.04
2018-02-02T05:48:56.514Z,99727.77
2018-02-02T05:50:00.618Z,99722.47
2018-02-02T05:51:04.786Z,99726.39
2018-02-02T05:52:08.894Z,99725.96
2018-02-02T05:53:13.368Z,99730.36
2018-02-02T05:54:17.643Z,99727.31
2018-02-02T05:55:21.759Z,99726.86
2018-02-02T05:56:25.985Z,99725.96
2018-02-02T05:57:30.114Z,99730.33
2018-02-02T05:58:34.568Z,99727.70
2018-02-02T05:59:39.330Z,99738.62
2018-02-02T06:00:43.993Z,99728.13
2018-02-02T06:01:48.446Z,99729.45
2018-02-02T06:02:52.594Z,99731.65
2018-02-02T06:03:56.781Z,99735.97
2018-02-02T06:05:01.599Z,99731.50
2018-02-02T06:06:05.774Z,99736.33
2018-02-02T06:07:09.969Z,99739.00
2018-02-02T06:08:14.120Z,99731.11
2018-02-02T06:09:18.285Z,99739.45
2018-02-02T06:10:22.751Z,99732.38
2018-02-02T06:11:26.959Z,99727.14
2018-02-02T06:12:31.071Z,99738.52
2018-02-02T06:13:35.215Z,99731.11
2018-02-02T06:14:39.402Z,99734.59
2018-02-02T06:15:43.570Z,99730.18
2018-02-02T06:16:48.212Z,99739.88
2018-02-02T06:17:52.353Z,99740.78
2018-02-02T06:18:56.657Z,99750.91
2018-02-02T06:20:01.450Z,99744.78
2018-02-02T06:21:05.570Z,99739.95
2018-02-02T06:22:09.798Z,99751.78
2018-02-02T06:23:14.273Z,99750.49
2018-02-02T06:24:18.417Z,99754.88
2018-02-02T06:25:22.565Z,99757.94
2018-02-02T06:26:26.712Z,99753.09
2018-02-02T06:27:30.939Z,99761.41
2018-02-02T06:28:35.736Z,99762.30
2018-02-02T06:29:39.875Z,99763.16
2018-02-02T06:33:11.013Z,99752.13
2018-02-02T06:34:15.136Z,99758.70
2018-02-02T06:35:19.390Z,99755.63
2018-02-02T06:36:23.548Z,99763.06
2018-02-02T06:37:27.773Z,99770.07
2018-02-02T06:38:31.899Z,99765.34
2018-02-02T06:39:36.005Z,99765.75
2018-02-02T06:40:41.331Z,99764.87
2018-02-02T06:41:45.422Z,99764.84
2018-02-02T06:42:49.682Z,99766.18
2018-02-02T06:43:53.857Z,99772.76
2018-02-02T06:44:57.973Z,99767.52
2018-02-02T06:46:03.530Z,99766.66
2018-02-02T06:47:07.949Z,99767.53
2018-02-02T06:48:12.170Z,99767.09
2018-02-02T06:49:16.294Z,99765.33
2018-02-02T06:50:20.489Z,99769.67
2018-02-02T06:51:24.631Z,99768.39
2018-02-02T06:52:28.745Z,99778.44
2018-02-02T06:53:33.296Z,99773.61
2018-02-02T06:54:37.401Z,99779.34
2018-02-02T06:55:41.661Z,99785.02
2018-02-02T06:56:45.786Z,99784.60
2018-02-02T06:57:49.909Z,99778.47
2018-02-02T06:58:54.116Z,99776.27
2018-02-02T06:59:58.253Z,99783.27
2018-02-02T07:01:02.572Z,99778.88
2018-02-02T07:02:08.126Z,99781.96
2018-02-02T07:03:12.779Z,99785.91
2018-02-02T07:04:16.972Z,99785.89
2018-02-02T07:05:21.118Z,99777.56
2018-02-02T07:06:25.899Z,99782.38
2018-02-02T07:07:30.078Z,99779.75
2018-02-02T07:08:34.172Z,99789.83
2018-02-02T07:09:39.122Z,99797.29
2018-02-02T07:10:43.255Z,99799.90
2018-02-02T07:31:03.670Z,99813.78
2018-02-02T07:32:07.828Z,99814.62
2018-02-02T07:33:11.973Z,99821.59
2018-02-02T07:34:16.215Z,99825.10
2018-02-02T07:35:20.494Z,99826.84
2018-02-02T07:36:24.994Z,99823.78
2018-02-02T07:37:29.126Z,99825.09
2018-02-02T07:38:33.273Z,99824.18
2018-02-02T07:39:38.441Z,99819.25
2018-02-02T07:40:42.680Z,99826.25
2018-02-02T07:41:46.906Z,99826.25
2018-02-02T07:42:51.366Z,99826.27
2018-02-02T07:43:55.510Z,99830.69
2018-02-02T07:47:52.014Z,99833.76
2018-02-02T07:48:56.365Z,99840.81
2018-02-02T07:50:01.553Z,99843.89
2018-02-02T07:51:05.722Z,99845.23
2018-02-02T07:52:09.974Z,99842.59
2018-02-02T07:53:14.178Z,99834.22
2018-02-02T07:54:18.342Z,99840.37
2018-02-02T07:55:22.993Z,99843.45
2018-02-02T07:56:27.466Z,99844.71
2018-02-02T07:57:31.651Z,99839.45
2018-02-02T07:58:35.854Z,99837.67
2018-02-02T07:59:40.334Z,99835.94
2018-02-02T08:00:49.769Z,99839.86
2018-02-02T08:01:54.174Z,99842.88
2018-02-02T08:02:58.707Z,99841.52
2018-02-02T08:04:03.009Z,99846.34
2018-02-02T08:05:07.183Z,99845.48
2018-02-02T08:06:11.310Z,99845.48
2018-02-02T08:07:15.482Z,99848.57
2018-02-02T08:08:19.609Z,99843.73
2018-02-02T08:09:24.141Z,99856.01
2018-02-02T08:10:28.262Z,99853.80
2018-02-02T08:11:32.390Z,99851.59
2018-02-02T08:12:36.640Z,99852.88
2018-02-02T08:13:40.774Z,99853.32
2018-02-02T08:14:44.990Z,99851.98
2018-02-02T08:15:49.143Z,99850.61
2018-02-02T08:16:53.355Z,99857.98
2018-02-02T08:17:57.522Z,99863.20
2018-02-02T08:19:01.661Z,99856.99
2018-02-02T08:20:06.660Z,99857.28
2018-02-02T08:21:10.809Z,99857.81
2018-02-02T08:22:15.265Z,99861.88
2018-02-02T08:23:19.461Z,99862.80
2018-02-02T08:24:23.649Z,99867.22
2018-02-02T08:25:27.901Z,99870.23
2018-02-02T08:26:32.059Z,99868.08
2018-02-02T08:27:36.214Z,99872.91
2018-02-02T08:28:40.659Z,99871.95
2018-02-02T08:29:45.594Z,99874.93
2018-02-02T08:36:04.024Z,99879.91
2018-02-02T08:37:08.153Z,99884.26
2018-02-02T08:38:12.298Z,99883.80
2018-02-02T08:39:16.498Z,99889.89
2018-02-02T08:40:20.634Z,99892.95
2018-02-02T08:41:25.189Z,99890.36
2018-02-02T08:42:29.314Z,99898.72
2018-02-02T08:43:33.454Z,99894.83
2018-02-02T08:44:37.678Z,99892.22
2018-02-02T08:45:42.347Z,99894.83
2018-02-02T08:46:46.579Z,99895.17
2018-02-02T08:47:52.318Z,99901.27
2018-02-02T08:48:56.511Z,99900.30
2018-02-02T08:50:00.668Z,99901.64
2018-02-02T08:51:04.914Z,99910.91
2018-02-02T08:52:09.092Z,99906.05
2018-02-02T08:53:13.250Z,99913.55
2018-02-02T08:54:17.717Z,99909.55
2018-02-02T08:55:21.870Z,99919.59
2018-02-02T08:56:26.366Z,99922.23
2018-02-02T08:57:30.535Z,99921.82
2018-02-02T08:58:34.694Z,99926.55
2018-02-02T08:59:38.963Z,99929.16
2018-02-02T09:00:47.295Z,99927.79
2018-02-02T09:01:55.466Z,99930.39
2018-02-02T09:02:59.587Z,99934.30
2018-02-02T09:04:03.844Z,99930.80
2018-02-02T09:05:09.025Z,99933.45
2018-02-02T09:06:13.182Z,99939.59
2018-02-02T09:07:17.707Z,99943.50
2018-02-02T09:08:21.833Z,99937.77
2018-02-02T09:09:26.007Z,99928.47
2018-02-02T09:10:30.277Z,99943.05
2018-02-02T09:11:34.375Z,99942.61
2018-02-02T09:12:38.514Z,99939.13
2018-02-02T09:13:42.926Z,99944.83
2018-02-02T09:14:47.639Z,99942.11
2018-02-02T09:15:52.277Z,99939.42
2018-02-02T09:16:56.417Z,99945.54
2018-02-02T09:18:00.554Z,99950.77
2018-02-02T09:19:04.723Z,99947.19
2018-02-02T09:20:10.407Z,99947.55
2018-02-02T09:21:14.691Z,99949.73
2018-02-02T09:22:18.817Z,99952.41
2018-02-02T09:23:22.953Z,99952.39
2018-02-02T09:24:27.127Z,99949.73
2018-02-02T09:25:31.374Z,99947.14
2018-02-02T09:26:35.592Z,99952.81
2018-02-02T09:27:38.705Z,99954.41
2018-02-02T09:28:42.873Z,99956.47
2018-02-02T09:29:47.100Z,99957.52
2018-02-02T09:30:52.230Z,99953.97
2018-02-02T09:31:57.597Z,99951.55
2018-02-02T09:34:14.881Z,99958.64
2018-02-02T09:35:19.095Z,99957.20
2018-02-02T09:36:23.297Z,99958.22
2018-02-02T09:37:27.981Z,99967.09
2018-02-02T09:38:32.173Z,99962.81
2018-02-02T09:39:36.322Z,99961.88
2018-02-02T09:40:41.710Z,99969.23
2018-02-02T09:41:45.942Z,99966.44
2018-02-02T09:42:50.278Z,99972.53
2018-02-02T09:43:55.497Z,99972.13
2018-02-02T09:44:59.797Z,99974.30
2018-02-02T09:46:04.311Z,99969.02
2018-02-02T09:47:09.578Z,99977.44
2018-02-02T09:48:14.418Z,99978.03
2018-02-02T09:49:18.589Z,99980.65
2018-02-02T09:50:23.171Z,99983.45
2018-02-02T09:51:27.326Z,99985.53
2018-02-02T09:52:31.572Z,99984.58
2018-02-02T09:53:35.738Z,99981.55
2018-02-02T09:54:39.879Z,99987.73
2018-02-02T09:55:44.407Z,99986.50
2018-02-02T09:56:48.641Z,99984.33
2018-02-02T09:57:52.898Z,99985.31
2018-02-02T09:58:57.079Z,99986.61
2018-02-02T10:00:01.298Z,99980.13
2018-02-02T10:01:05.534Z,99984.58
2018-02-02T10:02:10.341Z,99982.35
2018-02-02T10:03:14.622Z,99984.28
2018-02-02T10:04:18.797Z,99979.36
2018-02-02T10:05:22.946Z,99981.58
2018-02-02T10:06:27.195Z,99982.88
2018-02-02T10:07:31.327Z,99982.45
2018-02-02T10:08:35.881Z,99982.83
2018-02-02T10:09:40.022Z,99978.87
2018-02-02T10:10:44.167Z,99983.22
2018-02-02T10:11:49.455Z,99978.29
2018-02-02T10:12:53.899Z,99979.22
2018-02-02T10:13:58.099Z,99986.80
2018-02-02T10:15:04.083Z,99985.34
2018-02-02T10:16:08.389Z,99985.70
2018-02-02T10:17:12.552Z,99988.66
2018-02-02T10:18:16.766Z,99993.19
2018-02-02T10:19:20.959Z,99995.94
2018-02-02T10:20:25.774Z,99995.19
2018-02-02T10:21:29.968Z,99996.84
2018-02-02T10:32:01.463Z,100005.91
2018-02-02T10:33:06.722Z,100001.88
2018-02-02T10:34:10.962Z,99997.30
2018-02-02T10:35:15.122Z,100008.05
2018-02-02T10:36:19.360Z,100005.16
2018-02-02T10:37:23.816Z,100000.02
2018-02-02T10:38:27.972Z,100008.78
2018-02-02T10:39:32.236Z,100009.14
2018-02-02T10:40:36.432Z,100009.27
2018-02-02T10:41:40.584Z,100008.66
2018-02-02T10:42:44.692Z,100006.81
2018-02-02T10:43:49.314Z,100005.97
2018-02-02T10:44:54.219Z,100006.52
2018-02-02T10:45:58.741Z,99998.22
2018-02-02T10:47:03.842Z,99997.20
2018-02-02T10:48:08.339Z,99996.65
2018-02-02T10:49:12.513Z,100001.91
2018-02-02T10:50:16.767Z,99997.07
2018-02-02T10:51:20.955Z,100003.09
2018-02-02T10:52:25.146Z,99994.66
2018-02-02T10:53:29.334Z,99994.64
2018-02-02T10:54:33.587Z,100004.84
2018-02-02T10:55:37.848Z,100003.89
2018-02-02T10:56:42.370Z,100007.08
2018-02-02T10:57:46.548Z,100003.63
2018-02-02T10:58:50.799Z,99994.22
2018-02-02T10:59:56.453Z,100004.02
2018-02-02T11:01:04.863Z,99999.66
2018-02-02T11:02:15.100Z,100009.65
2018-02-02T11:03:21.249Z,100002.95
2018-02-02T11:04:25.618Z,100007.09
2018-02-02T11:05:29.867Z,100004.27
2018-02-02T11:06:34.100Z,100005.77
2018-02-02T11:07:38.346Z,100008.35
2018-02-02T11:08:42.883Z,100007.53
2018-02-02T11:09:47.039Z,100011.32
2018-02-02T11:10:51.291Z,100016.44
2018-02-02T11:11:55.603Z,100009.52
2018-02-02T11:12:59.745Z,100011.25
2018-02-02T11:14:04.557Z,100007.23
2018-02-02T11:15:09.941Z,100005.61
2018-02-02T11:16:14.453Z,100004.41
2018-02-02T11:17:18.934Z,100007.64
2018-02-02T11:18:23.113Z,100003.02
2018-02-02T11:19:27.544Z,100004.17
2018-02-02T11:20:31.984Z,99993.27
2018-02-02T11:21:36.134Z,100001.94
2018-02-02T11:22:40.356Z,100003.39
2018-02-02T11:23:45.529Z,100004.89
2018-02-02T11:37:11.126Z,100006.87
2018-02-02T11:38:15.569Z,100011.78
2018-02-02T11:39:19.718Z,100012.45
2018-02-02T11:40:24.560Z,100010.45
2018-02-02T11:41:28.977Z,100014.00
2018-02-02T11:42:33.291Z,100007.45
2018-02-02T11:43:37.497Z,100018.58
2018-02-02T11:44:41.787Z,100012.94
2018-02-02T11:45:46.354Z,100012.16
2018-02-02T11:46:50.579Z,100010.48
2018-02-02T11:47:55.139Z,100013.20
2018-02-02T11:49:00.102Z,100013.89
2018-02-02T11:50:04.399Z,100009.82
2018-02-02T11:51:08.583Z,100010.59
2018-02-02T11:52:12.781Z,100016.06
2018-02-02T11:53:17.022Z,100014.88
2018-02-02T11:54:21.474Z,100008.47
2018-02-02T11:55:25.752Z,100011.52
2018-02-02T11:56:29.990Z,100015.08
2018-02-02T11:57:34.174Z,100011.98
2018-02-02T11:58:38.418Z,100018.09
2018-02-02T11:59:42.605Z,100019.69
2018-02-02T12:00:47.235Z,100017.59
2018-02-02T12:01:51.574Z,100018.53
2018-02-02T12:02:55.779Z,100018.84
2018-02-02T12:03:59.918Z,100022.95
2018-02-02T12:05:04.145Z,100024.07
2018-02-02T12:06:09.057Z,100027.36
2018-02-02T12:07:13.333Z,100027.09
2018-02-02T12:08:17.494Z,100032.70
2018-02-02T12:09:21.833Z,100027.19
2018-02-02T12:15:52.617Z,100040.87
2018-02-02T12:16:57.065Z,100042.59
2018-02-02T12:18:01.928Z,100047.41
2018-02-02T12:19:06.217Z,100050.29
2018-02-02T12:20:10.583Z,100045.88
2018-02-02T12:21:14.934Z,100046.59
2018-02-02T12:22:19.224Z,100043.11
2018-02-02T12:23:23.558Z,100040.13
2018-02-02T12:24:28.019Z,100035.00
2018-02-02T12:25:32.683Z,100038.76
2018-02-02T12:26:37.130Z,100039.81
2018-02-02T12:27:41.529Z,100038.53
2018-02-02T12:28:45.900Z,100038.56
2018-02-02T12:29:50.310Z,100034.06
2018-02-02T12:30:55.089Z,100043.63
2018-02-02T12:31:59.534Z,100038.79
2018-02-02T12:33:03.829Z,100041.73
2018-02-02T12:34:08.151Z,100041.48
2018-02-02T12:35:12.491Z,100036.64
2018-02-02T12:36:16.830Z,100035.41
2018-02-02T12:37:21.558Z,100030.39
2018-02-02T12:38:25.950Z,100036.99
2018-02-02T12:39:30.292Z,100032.09
2018-02-02T12:40:34.648Z,100035.43
2018-02-02T12:41:38.899Z,100035.56
2018-02-02T12:42:43.191Z,100028.98
2018-02-02T12:43:47.342Z,100040.73
2018-02-02T12:44:51.510Z,100036.80
2018-02-02T12:45:55.767Z,100035.30
2018-02-02T12:47:00.026Z,100037.91
2018-02-02T12:48:04.234Z,100038.67
2018-02-02T12:54:18.578Z,100040.95
2018-02-02T12:55:22.964Z,100038.86
2018-02-02T12:56:27.171Z,100035.56
2018-02-02T12:57:31.379Z,100035.84
2018-02-02T12:58:35.771Z,100038.66
2018-02-02T12:59:40.063Z,100037.20
2018-02-02T13:00:45.156Z,100039.33
2018-02-02T13:01:49.496Z,100034.55
2018-02-02T13:02:53.755Z,100039.15
2018-02-02T13:03:57.958Z,100033.50
2018-02-02T13:05:02.247Z,100036.20
2018-02-02T13:15:34.867Z,100056.75
2018-02-02T13:16:39.067Z,100060.31
2018-02-02T13:17:43.328Z,100066.94
2018-02-02T13:18:47.870Z,100057.99
2018-02-02T13:19:52.543Z,100061.02
2018-02-02T13:20:56.915Z,100063.00
2018-02-02T13:22:01.973Z,100067.12
2018-02-02T13:23:06.203Z,100069.71
2018-02-02T13:24:10.976Z,100064.83
2018-02-02T13:25:15.185Z,100073.97
2018-02-02T13:26:19.450Z,100072.91
2018-02-02T13:27:23.715Z,100067.62
2018-02-02T13:28:27.971Z,100068.50
2018-02-02T13:29:32.607Z,100071.55
2018-02-02T13:30:37.419Z,100066.30
2018-02-02T13:31:41.860Z,100073.77
2018-02-02T13:32:46.162Z,100068.99
2018-02-02T13:33:50.348Z,100072.64
2018-02-02T13:34:54.783Z,100070.59
2018-02-02T13:36:00.011Z,100074.33
2018-02-02T13:37:04.201Z,100074.37
2018-02-02T13:38:08.383Z,100073.03
2018-02-02T13:39:12.616Z,100079.09
2018-02-02T13:40:16.879Z,100069.59
2018-02-02T13:41:21.184Z,100076.85
2018-02-02T13:42:25.725Z,100076.35
2018-02-02T13:43:29.963Z,100084.27
2018-02-02T13:44:34.273Z,100087.98
2018-02-02T13:45:38.500Z,100084.83
2018-02-02T13:46:42.815Z,100087.48
2018-02-02T13:47:47.015Z,100091.65
2018-02-02T13:48:51.527Z,100092.66
2018-02-02T13:49:55.906Z,100093.33
2018-02-02T13:51:00.129Z,100097.34
2018-02-02T13:52:04.353Z,100097.14
2018-02-02T13:53:10.024Z,100106.22
2018-02-02T13:54:14.327Z,100104.94
2018-02-02T13:55:18.634Z,100104.59
2018-02-02T13:56:22.867Z,100101.45
2018-02-02T13:57:27.032Z,100107.17
2018-02-02T13:58:31.287Z,100101.16
2018-02-02T13:59:35.607Z,100113.95
2018-02-02T14:00:40.023Z,100117.63
2018-02-02T14:01:44.252Z,100115.42
2018-02-02T14:02:48.428Z,100110.23
2018-02-02T14:03:52.747Z,100117.92
2018-02-02T14:04:57.020Z,100116.79
2018-02-02T14:06:02.488Z,100118.67
2018-02-02T14:07:06.810Z,100120.73
2018-02-02T14:08:11.711Z,100123.66
2018-02-02T14:09:15.930Z,100122.34
2018-02-02T14:26:38.690Z,100133.69
2018-02-02T14:27:42.865Z,100137.33
2018-02-02T14:28:47.123Z,100139.99
2018-02-02T14:29:51.409Z,100138.20
2018-02-02T14:30:56.342Z,100138.96
2018-02-02T14:32:00.908Z,100145.56
2018-02-02T14:33:06.528Z,100141.20
2018-02-02T14:34:11.004Z,100146.33
2018-02-02T14:35:15.518Z,100147.36
2018-02-02T14:36:19.871Z,100143.42
2018-02-02T14:37:24.446Z,100154.44
2018-02-02T14:38:28.643Z,100157.89
2018-02-02T14:39:32.875Z,100156.25
2018-02-02T14:40:37.072Z,100160.42
2018-02-02T14:41:41.327Z,100157.19
2018-02-02T14:42:45.570Z,100160.62
2018-02-02T14:43:49.820Z,100169.28
2018-02-02T14:44:54.142Z,100169.94